sensor_id;sensor_type;location;lat;lon;timestamp;pressure;altitude;pressure_sealevel;temperature;humidity
76847;BME280;65813;49.546;8.644;2023-04-16T04:17:12;100768.66;;;8.26;87.57
76847;BME280;65813;49.546;8.644;2023-04-16T04:21:12;100768.72;;;8.25;87.48
76847;BME280;65813;49.546;8.644;2023-04-16T04:25:13;100763.25;;;8.28;87.10
76847;BME280;65813;49.546;8.644;2023-04-16T04:29:13;100766.72;;;8.30;87.21
76847;BME280;65813;49.546;8.644;2023-04-16T04:33:14;100771.16;;;8.29;87.33
76847;BME280;65813;49.546;8.644;2023-04-16T04:37:14;100775.44;;;8.32;87.49
76847;BME280;65813;49.546;8.644;2023-04-16T04:41:15;100771.84;;;8.33;87.14
76847;BME280;65813;49.546;8.644;2023-04-16T04:45:15;100786.22;;;8.29;88.10
76847;BME280;65813;49.546;8.644;2023-04-16T04:49:16;100788.88;;;8.29;87.97
76847;BME280;65813;49.546;8.644;2023-04-16T04:53:16;100789.66;;;8.31;87.44
76847;BME280;65813;49.546;8.644;2023-04-16T04:57:16;100795.09;;;8.28;87.42
76847;BME280;65813;49.546;8.644;2023-04-16T05:01:16;100789.88;;;8.26;87.39
76847;BME280;65813;49.546;8.644;2023-04-16T05:05:17;100804.09;;;8.25;87.29
76847;BME280;65813;49.546;8.644;2023-04-16T05:09:17;100806.84;;;8.24;87.46
76847;BME280;65813;49.546;8.644;2023-04-16T05:13:17;100811.38;;;8.22;87.58
76847;BME280;65813;49.546;8.644;2023-04-16T05:17:18;100810.69;;;8.18;87.88
76847;BME280;65813;49.546;8.644;2023-04-16T05:21:18;100801.28;;;8.12;88.03
76847;BME280;65813;49.546;8.644;2023-04-16T05:25:18;100806.94;;;8.06;88.30
76847;BME280;65813;49.546;8.644;2023-04-16T05:29:19;100808.75;;;8.06;88.12
76847;BME280;65813;49.546;8.644;2023-04-16T05:33:19;100811.13;;;8.10;87.99
76847;BME280;65813;49.546;8.644;2023-04-16T05:37:19;100812.94;;;8.10;87.93
76847;BME280;65813;49.546;8.644;2023-04-16T05:41:20;100815.66;;;8.08;87.70
76847;BME280;65813;49.546;8.644;2023-04-16T05:45:20;100824.66;;;8.06;88.06
76847;BME280;65813;49.546;8.644;2023-04-16T05:49:21;100828.19;;;8.06;87.75
76847;BME280;65813;49.546;8.644;2023-04-16T05:53:21;100842.19;;;8.08;87.73
76847;BME280;65813;49.546;8.644;2023-04-16T05:57:21;100833.19;;;8.11;87.25
76847;BME280;65813;49.546;8.644;2023-04-16T06:01:22;100845.78;;;8.07;87.94
76847;BME280;65813;49.546;8.644;2023-04-16T06:05:25;100842.94;;;8.10;87.84
76847;BME280;65813;49.546;8.644;2023-04-16T06:09:25;100845.72;;;8.09;88.28
76847;BME280;65813;49.546;8.644;2023-04-16T06:13:26;100855.91;;;8.17;87.57
76847;BME280;65813;49.546;8.644;2023-04-16T06:17:26;100863.94;;;8.15;87.23
76847;BME280;65813;49.546;8.644;2023-04-16T06:21:27;100866.53;;;8.17;87.35
76847;BME280;65813;49.546;8.644;2023-04-16T06:25:28;100859.56;;;8.14;87.26
76847;BME280;65813;49.546;8.644;2023-04-16T06:29:28;100861.53;;;8.10;87.37
76847;BME280;65813;49.546;8.644;2023-04-16T06:33:28;100870.28;;;8.12;87.36
76847;BME280;65813;49.546;8.644;2023-04-16T06:37:28;100864.19;;;8.10;87.15
76847;BME280;65813;49.546;8.644;2023-04-16T06:41:29;100866.59;;;8.15;87.11
76847;BME280;65813;49.546;8.644;2023-04-16T06:45:29;100870.44;;;8.09;86.80
76847;BME280;65813;49.546;8.644;2023-04-16T06:49:30;100881.06;;;8.09;87.09
76847;BME280;65813;49.546;8.644;2023-04-16T06:53:30;100880.88;;;8.12;86.69
76847;BME280;65813;49.546;8.644;2023-04-16T06:57:30;100887.06;;;8.13;86.93
76847;BME280;65813;49.546;8.644;2023-04-16T07:01:31;100881.41;;;8.19;86.34
76847;BME280;65813;49.546;8.644;2023-04-16T07:05:31;100900.56;;;8.24;86.22
76847;BME280;65813;49.546;8.644;2023-04-16T07:09:31;100893.88;;;8.17;86.52
76847;BME280;65813;49.546;8.644;2023-04-16T07:13:32;100884.06;;;8.19;86.12
76847;BME280;65813;49.546;8.644;2023-04-16T07:17:32;100883.53;;;8.12;86.27
76847;BME280;65813;49.546;8.644;2023-04-16T07:21:33;100886.03;;;8.16;86.68
76847;BME280;65813;49.546;8.644;2023-04-16T07:25:33;100891.31;;;8.16;86.67
76847;BME280;65813;49.546;8.644;2023-04-16T07:29:33;100889.59;;;8.14;86.97
76847;BME280;65813;49.546;8.644;2023-04-16T07:33:33;100888.50;;;8.19;86.33
76847;BME280;65813;49.546;8.644;2023-04-16T07:37:34;100889.88;;;8.26;86.24
76847;BME280;65813;49.546;8.644;2023-04-16T07:41:34;100895.72;;;8.32;85.98
76847;BME280;65813;49.546;8.644;2023-04-16T07:45:35;100897.63;;;8.30;86.26
76847;BME280;65813;49.546;8.644;2023-04-16T07:49:35;100900.00;;;8.35;86.49
76847;BME280;65813;49.546;8.644;2023-04-16T07:53:35;100905.13;;;8.38;86.16
76847;BME280;65813;49.546;8.644;2023-04-16T07:57:36;100907.66;;;8.41;86.07
76847;BME280;65813;49.546;8.644;2023-04-16T08:01:36;100904.03;;;8.42;86.58
76847;BME280;65813;49.546;8.644;2023-04-16T08:05:36;100911.66;;;8.48;86.00
76847;BME280;65813;49.546;8.644;2023-04-16T08:09:46;100914.31;;;8.48;85.75
76847;BME280;65813;49.546;8.644;2023-04-16T08:13:46;100921.69;;;8.43;85.94
76847;BME280;65813;49.546;8.644;2023-04-16T08:17:47;100931.38;;;8.44;85.54
76847;BME280;65813;49.546;8.644;2023-04-16T08:21:47;100927.75;;;8.45;85.74
76847;BME280;65813;49.546;8.644;2023-04-16T08:25:47;100933.22;;;8.42;85.79
76847;BME280;65813;49.546;8.644;2023-04-16T08:29:48;100931.38;;;8.44;86.43
76847;BME280;65813;49.546;8.644;2023-04-16T08:33:48;100946.50;;;8.42;86.76
76847;BME280;65813;49.546;8.644;2023-04-16T08:37:48;100946.59;;;8.40;87.11
76847;BME280;65813;49.546;8.644;2023-04-16T08:41:49;100947.47;;;8.41;87.41
76847;BME280;65813;49.546;8.644;2023-04-16T08:45:52;100952.16;;;8.36;87.73
76847;BME280;65813;49.546;8.644;2023-04-16T08:49:57;100958.16;;;8.39;88.23
76847;BME280;65813;49.546;8.644;2023-04-16T08:54:07;100960.75;;;8.41;89.11
76847;BME280;65813;49.546;8.644;2023-04-16T08:58:20;100965.34;;;8.37;88.46
76847;BME280;65813;49.546;8.644;2023-04-16T09:02:21;100960.88;;;8.38;88.70
76847;BME280;65813;49.546;8.644;2023-04-16T09:06:21;100974.84;;;8.41;89.38
76847;BME280;65813;49.546;8.644;2023-04-16T09:10:24;100981.47;;;8.34;89.34
76847;BME280;65813;49.546;8.644;2023-04-16T09:14:25;100976.97;;;8.35;90.06
76847;BME280;65813;49.546;8.644;2023-04-16T09:18:26;100980.59;;;8.34;89.92
76847;BME280;65813;49.546;8.644;2023-04-16T09:22:27;100980.84;;;8.29;90.28
76847;BME280;65813;49.546;8.644;2023-04-16T09:26:27;100982.47;;;8.32;90.23
76847;BME280;65813;49.546;8.644;2023-04-16T09:30:28;100992.13;;;8.33;90.37
76847;BME280;65813;49.546;8.644;2023-04-16T09:34:31;100996.34;;;8.37;90.48
76847;BME280;65813;49.546;8.644;2023-04-16T09:38:52;100998.31;;;8.33;90.21
76847;BME280;65813;49.546;8.644;2023-04-16T09:42:56;101000.09;;;8.33;90.40
76847;BME280;65813;49.546;8.644;2023-04-16T09:47:05;100999.06;;;8.35;90.11
76847;BME280;65813;49.546;8.644;2023-04-16T09:51:06;100997.28;;;8.36;90.05
76847;BME280;65813;49.546;8.644;2023-04-16T09:55:06;100998.72;;;8.41;90.35
76847;BME280;65813;49.546;8.644;2023-04-16T09:59:10;101001.56;;;8.38;90.52
76847;BME280;65813;49.546;8.644;2023-04-16T10:03:15;101005.94;;;8.39;90.58
76847;BME280;65813;49.546;8.644;2023-04-16T10:07:17;101008.34;;;8.44;90.19
76847;BME280;65813;49.546;8.644;2023-04-16T10:11:19;101007.72;;;8.39;90.29
76847;BME280;65813;49.546;8.644;2023-04-16T10:15:20;101010.03;;;8.45;90.32
76847;BME280;65813;49.546;8.644;2023-04-16T10:19:21;101014.41;;;8.46;90.42
76847;BME280;65813;49.546;8.644;2023-04-16T10:23:22;101019.72;;;8.46;90.59
76847;BME280;65813;49.546;8.644;2023-04-16T10:27:23;101019.50;;;8.50;90.40
76847;BME280;65813;49.546;8.644;2023-04-16T10:31:26;101021.97;;;8.53;90.84
76847;BME280;65813;49.546;8.644;2023-04-16T10:35:26;101020.19;;;8.54;90.83
76847;BME280;65813;49.546;8.644;2023-04-16T10:39:27;101023.59;;;8.56;90.63
76847;BME280;65813;49.546;8.644;2023-04-16T10:43:48;101026.19;;;8.57;90.86
76847;BME280;65813;49.546;8.644;2023-04-16T10:47:48;101020.00;;;8.57;90.65
76847;BME280;65813;49.546;8.644;2023-04-16T10:52:08;101021.38;;;8.64;90.77
76847;BME280;65813;49.546;8.644;2023-04-16T10:56:10;101019.66;;;8.63;90.62
76847;BME280;65813;49.546;8.644;2023-04-16T11:00:21;101021.22;;;8.67;91.20
76847;BME280;65813;49.546;8.644;2023-04-16T11:04:26;101026.34;;;8.70;91.17
76847;BME280;65813;49.546;8.644;2023-04-16T11:08:27;101014.78;;;8.71;90.90
76847;BME280;65813;49.546;8.644;2023-04-16T11:16:30;101021.88;;;8.86;90.89
76847;BME280;65813;49.546;8.644;2023-04-16T11:20:30;101022.75;;;8.87;90.24
76847;BME280;65813;49.546;8.644;2023-04-16T11:24:31;101023.44;;;8.90;90.40
76847;BME280;65813;49.546;8.644;2023-04-16T11:28:33;101019.13;;;9.03;90.90
76847;BME280;65813;49.546;8.644;2023-04-16T11:32:34;101023.25;;;8.93;90.13
76847;BME280;65813;49.546;8.644;2023-04-16T11:36:51;101024.91;;;8.96;90.58
76847;BME280;65813;49.546;8.644;2023-04-16T11:40:51;101019.50;;;8.97;90.33
76847;BME280;65813;49.546;8.644;2023-04-16T11:44:54;101020.78;;;9.06;90.44
76847;BME280;65813;49.546;8.644;2023-04-16T11:48:54;101023.09;;;9.12;90.79
76847;BME280;65813;49.546;8.644;2023-04-16T11:52:57;101018.28;;;9.19;91.20
76847;BME280;65813;49.546;8.644;2023-04-16T11:57:02;101017.22;;;9.21;91.12
76847;BME280;65813;49.546;8.644;2023-04-16T12:01:07;101025.13;;;9.23;90.49
76847;BME280;65813;49.546;8.644;2023-04-16T12:09:30;101013.03;;;9.33;90.18
76847;BME280;65813;49.546;8.644;2023-04-16T12:13:31;101022.53;;;9.37;90.26
76847;BME280;65813;49.546;8.644;2023-04-16T12:17:38;101013.25;;;9.44;89.92
76847;BME280;65813;49.546;8.644;2023-04-16T12:25:41;101025.59;;;9.45;89.92
76847;BME280;65813;49.546;8.644;2023-04-16T12:29:42;101028.84;;;9.50;90.14
76847;BME280;65813;49.546;8.644;2023-04-16T12:33:42;101024.81;;;9.43;89.44
76847;BME280;65813;49.546;8.644;2023-04-16T12:37:42;101028.44;;;9.42;89.35
76847;BME280;65813;49.546;8.644;2023-04-16T12:41:43;101033.75;;;9.42;88.83
76847;BME280;65813;49.546;8.644;2023-04-16T12:45:43;101035.38;;;9.44;89.27
76847;BME280;65813;49.546;8.644;2023-04-16T12:49:44;101037.00;;;9.47;89.71
76847;BME280;65813;49.546;8.644;2023-04-16T12:53:44;101039.56;;;9.48;89.05
76847;BME280;65813;49.546;8.644;2023-04-16T12:57:45;101040.25;;;9.52;89.49
76847;BME280;65813;49.546;8.644;2023-04-16T13:01:47;101039.28;;;9.53;89.39
76847;BME280;65813;49.546;8.644;2023-04-16T13:05:48;101035.88;;;9.51;89.67
76847;BME280;65813;49.546;8.644;2023-04-16T13:09:48;101033.22;;;9.51;89.27
76847;BME280;65813;49.546;8.644;2023-04-16T13:13:49;101036.81;;;9.50;89.01
76847;BME280;65813;49.546;8.644;2023-04-16T13:17:49;101037.75;;;9.49;89.33
76847;BME280;65813;49.546;8.644;2023-04-16T13:21:50;101037.69;;;9.50;89.67
76847;BME280;65813;49.546;8.644;2023-04-16T13:25:50;101037.75;;;9.49;89.20
76847;BME280;65813;49.546;8.644;2023-04-16T13:29:50;101034.53;;;9.44;88.46
76847;BME280;65813;49.546;8.644;2023-04-16T13:33:51;101037.19;;;9.44;88.79
76847;BME280;65813;49.546;8.644;2023-04-16T13:37:51;101043.38;;;9.44;88.86
76847;BME280;65813;49.546;8.644;2023-04-16T13:41:51;101043.44;;;9.43;89.00
76847;BME280;65813;49.546;8.644;2023-04-16T13:45:52;101041.72;;;9.42;89.42
76847;BME280;65813;49.546;8.644;2023-04-16T13:49:52;101049.50;;;9.45;89.48
76847;BME280;65813;49.546;8.644;2023-04-16T13:53:53;101048.56;;;9.46;89.24
76847;BME280;65813;49.546;8.644;2023-04-16T13:57:54;101048.56;;;9.46;88.96
76847;BME280;65813;49.546;8.644;2023-04-16T14:01:55;101046.84;;;9.45;89.18
76847;BME280;65813;49.546;8.644;2023-04-16T14:05:56;101053.31;;;9.41;88.82
76847;BME280;65813;49.546;8.644;2023-04-16T14:09:56;101056.91;;;9.40;89.26
76847;BME280;65813;49.546;8.644;2023-04-16T14:13:56;101046.19;;;9.41;89.27
76847;BME280;65813;49.546;8.644;2023-04-16T14:17:57;101059.31;;;9.44;89.82
76847;BME280;65813;49.546;8.644;2023-04-16T14:21:57;101055.81;;;9.44;89.97
76847;BME280;65813;49.546;8.644;2023-04-16T14:25:58;101052.34;;;9.42;90.01
76847;BME280;65813;49.546;8.644;2023-04-16T14:29:58;101062.81;;;9.45;90.25
76847;BME280;65813;49.546;8.644;2023-04-16T14:33:59;101060.94;;;9.47;90.48
76847;BME280;65813;49.546;8.644;2023-04-16T14:38:00;101065.31;;;9.48;90.45
76847;BME280;65813;49.546;8.644;2023-04-16T14:42:01;101051.91;;;9.49;90.69
76847;BME280;65813;49.546;8.644;2023-04-16T14:46:02;101052.59;;;9.53;90.65
76847;BME280;65813;49.546;8.644;2023-04-16T14:50:05;101062.97;;;9.57;90.38
76847;BME280;65813;49.546;8.644;2023-04-16T14:54:06;101070.66;;;9.62;91.03
76847;BME280;65813;49.546;8.644;2023-04-16T14:58:06;101064.53;;;9.61;90.47
76847;BME280;65813;49.546;8.644;2023-04-16T15:02:07;101060.13;;;9.60;90.63
76847;BME280;65813;49.546;8.644;2023-04-16T15:06:09;101064.53;;;9.61;90.40
76847;BME280;65813;49.546;8.644;2023-04-16T15:10:09;101066.13;;;9.64;90.10
76847;BME280;65813;49.546;8.644;2023-04-16T15:14:09;101064.34;;;9.64;89.84
76847;BME280;65813;49.546;8.644;2023-04-16T15:18:10;101064.91;;;9.70;89.95
76847;BME280;65813;49.546;8.644;2023-04-16T15:22:10;101063.97;;;9.71;89.91
76847;BME280;65813;49.546;8.644;2023-04-16T15:26:11;101062.16;;;9.71;89.36
76847;BME280;65813;49.546;8.644;2023-04-16T15:30:12;101065.50;;;9.75;89.66
76847;BME280;65813;49.546;8.644;2023-04-16T15:34:12;101066.25;;;9.77;91.11
76847;BME280;65813;49.546;8.644;2023-04-16T15:38:12;101068.84;;;9.78;91.05
76847;BME280;65813;49.546;8.644;2023-04-16T15:42:13;101069.78;;;9.77;91.86
76847;BME280;65813;49.546;8.644;2023-04-16T15:46:13;101073.19;;;9.79;92.20
76847;BME280;65813;49.546;8.644;2023-04-16T15:50:14;101069.53;;;9.82;92.38
76847;BME280;65813;49.546;8.644;2023-04-16T15:54:14;101079.13;;;9.84;91.70
76847;BME280;65813;49.546;8.644;2023-04-16T15:58:15;101081.69;;;9.86;91.51
76847;BME280;65813;49.546;8.644;2023-04-16T16:02:15;101074.91;;;9.80;91.66
76847;BME280;65813;49.546;8.644;2023-04-16T16:06:16;101078.69;;;9.76;91.61
76847;BME280;65813;49.546;8.644;2023-04-16T16:10:17;101084.44;;;9.84;90.78
76847;BME280;65813;49.546;8.644;2023-04-16T16:14:19;101080.59;;;9.74;90.76
76847;BME280;65813;49.546;8.644;2023-04-16T16:18:20;101078.88;;;9.73;90.09
76847;BME280;65813;49.546;8.644;2023-04-16T16:22:23;101077.19;;;9.72;90.51
76847;BME280;65813;49.546;8.644;2023-04-16T16:26:24;101072.69;;;9.73;90.33
76847;BME280;65813;49.546;8.644;2023-04-16T16:30:24;101077.75;;;9.77;89.35
76847;BME280;65813;49.546;8.644;2023-04-16T16:34:25;101086.69;;;9.76;89.11
76847;BME280;65813;49.546;8.644;2023-04-16T16:38:25;101079.56;;;9.77;88.80
76847;BME280;65813;49.546;8.644;2023-04-16T16:42:26;101083.16;;;9.76;89.19
76847;BME280;65813;49.546;8.644;2023-04-16T16:46:26;101077.44;;;9.68;89.70
76847;BME280;65813;49.546;8.644;2023-04-16T16:50:26;101081.97;;;9.81;90.21
76847;BME280;65813;49.546;8.644;2023-04-16T16:54:27;101080.78;;;9.71;89.68
76847;BME280;65813;49.546;8.644;2023-04-16T16:58:27;101084.66;;;9.65;90.44
76847;BME280;65813;49.546;8.644;2023-04-16T17:02:27;101086.19;;;9.70;88.79
76847;BME280;65813;49.546;8.644;2023-04-16T17:06:28;101085.25;;;9.71;89.84
76847;BME280;65813;49.546;8.644;2023-04-16T17:10:28;101095.81;;;9.72;90.56
76847;BME280;65813;49.546;8.644;2023-04-16T17:14:29;101089.16;;;9.79;90.45
76847;BME280;65813;49.546;8.644;2023-04-16T17:18:29;101087.41;;;9.64;90.88
76847;BME280;65813;49.546;8.644;2023-04-16T17:22:29;101087.31;;;9.65;89.99
76847;BME280;65813;49.546;8.644;2023-04-16T17:26:30;101086.09;;;9.71;88.85
76847;BME280;65813;49.546;8.644;2023-04-16T17:30:31;101086.19;;;9.70;89.70
76847;BME280;65813;49.546;8.644;2023-04-16T17:34:31;101096.94;;;9.68;89.42
76847;BME280;65813;49.546;8.644;2023-04-16T17:38:31;101095.88;;;9.71;88.80
76847;BME280;65813;49.546;8.644;2023-04-16T17:42:33;101106.53;;;9.71;88.08
76847;BME280;65813;49.546;8.644;2023-04-16T17:46:34;101108.44;;;9.69;87.95
76847;BME280;65813;49.546;8.644;2023-04-16T17:50:34;101119.22;;;9.65;88.09
76847;BME280;65813;49.546;8.644;2023-04-16T17:54:35;101125.50;;;9.64;87.98
76847;BME280;65813;49.546;8.644;2023-04-16T17:58:35;101126.63;;;9.60;88.35
76847;BME280;65813;49.546;8.644;2023-04-16T18:02:36;101126.69;;;9.59;88.44
76847;BME280;65813;49.546;8.644;2023-04-16T18:06:39;101131.28;;;9.57;88.73
76847;BME280;65813;49.546;8.644;2023-04-16T18:10:40;101133.94;;;9.57;89.18
76847;BME280;65813;49.546;8.644;2023-04-16T18:14:40;101133.31;;;9.52;89.29
76847;BME280;65813;49.546;8.644;2023-04-16T18:18:43;101134.34;;;9.49;89.49
76847;BME280;65813;49.546;8.644;2023-04-16T18:22:44;101137.88;;;9.50;88.93
76847;BME280;65813;49.546;8.644;2023-04-16T18:26:45;101139.50;;;9.52;88.41
76847;BME280;65813;49.546;8.644;2023-04-16T18:30:45;101144.63;;;9.55;88.09
76847;BME280;65813;49.546;8.644;2023-04-16T18:34:45;101141.28;;;9.52;88.51
76847;BME280;65813;49.546;8.644;2023-04-16T18:38:46;101147.91;;;9.45;89.13
76847;BME280;65813;49.546;8.644;2023-04-16T18:42:46;101153.41;;;9.42;89.64
76847;BME280;65813;49.546;8.644;2023-04-16T18:46:46;101155.81;;;9.46;88.50
76847;BME280;65813;49.546;8.644;2023-04-16T18:50:47;101160.09;;;9.49;88.48
76847;BME280;65813;49.546;8.644;2023-04-16T18:54:47;101157.78;;;9.43;88.68
76847;BME280;65813;49.546;8.644;2023-04-16T18:58:48;101159.34;;;9.47;88.12
76847;BME280;65813;49.546;8.644;2023-04-16T19:02:48;101163.44;;;9.37;90.12
76847;BME280;65813;49.546;8.644;2023-04-16T19:06:48;101165.75;;;9.43;88.60
76847;BME280;65813;49.546;8.644;2023-04-16T19:10:49;101177.44;;;9.40;88.05
76847;BME280;65813;49.546;8.644;2023-04-16T19:14:49;101177.94;;;9.47;87.56
76847;BME280;65813;49.546;8.644;2023-04-16T19:18:50;101177.00;;;9.48;88.19
76847;BME280;65813;49.546;8.644;2023-04-16T19:22:50;101182.56;;;9.43;87.76
76847;BME280;65813;49.546;8.644;2023-04-16T19:26:50;101186.34;;;9.39;87.89
76847;BME280;65813;49.546;8.644;2023-04-16T19:30:51;101186.69;;;9.33;87.51
76847;BME280;65813;49.546;8.644;2023-04-16T19:34:51;101187.72;;;9.31;87.22
76847;BME280;65813;49.546;8.644;2023-04-16T19:38:52;101187.56;;;9.34;86.87
76847;BME280;65813;49.546;8.644;2023-04-16T19:42:52;101185.06;;;9.31;87.07
76847;BME280;65813;49.546;8.644;2023-04-16T19:46:52;101185.06;;;9.31;86.79
76847;BME280;65813;49.546;8.644;2023-04-16T19:50:53;101188.50;;;9.33;86.35
76847;BME280;65813;49.546;8.644;2023-04-16T19:54:53;101192.88;;;9.34;85.69
76847;BME280;65813;49.546;8.644;2023-04-16T19:58:53;101195.59;;;9.32;85.93
76847;BME280;65813;49.546;8.644;2023-04-16T20:02:53;101198.38;;;9.31;85.37
76847;BME280;65813;49.546;8.644;2023-04-16T20:06:54;101196.53;;;9.31;84.88
76847;BME280;65813;49.546;8.644;2023-04-16T20:10:55;101193.97;;;9.30;84.73
76847;BME280;65813;49.546;8.644;2023-04-16T20:14:55;101196.53;;;9.31;84.15
76847;BME280;65813;49.546;8.644;2023-04-16T20:18:56;101199.31;;;9.30;84.38
76847;BME280;65813;49.546;8.644;2023-04-16T20:22:56;101193.03;;;9.31;84.12
76847;BME280;65813;49.546;8.644;2023-04-16T20:26:58;101196.53;;;9.31;84.00
76847;BME280;65813;49.546;8.644;2023-04-16T20:30:58;101184.22;;;9.30;83.67
76847;BME280;65813;49.546;8.644;2023-04-16T20:34:59;101193.03;;;9.31;83.51
76847;BME280;65813;49.546;8.644;2023-04-16T20:39:01;101188.56;;;9.31;83.85
76847;BME280;65813;49.546;8.644;2023-04-16T20:43:01;101193.19;;;9.28;83.96
76847;BME280;65813;49.546;8.644;2023-04-16T20:47:01;101191.50;;;9.27;84.74
76847;BME280;65813;49.546;8.644;2023-04-16T20:51:04;101195.84;;;9.28;84.88
76847;BME280;65813;49.546;8.644;2023-04-16T20:55:05;101183.53;;;9.27;84.75
76847;BME280;65813;49.546;8.644;2023-04-16T20:59:07;101188.72;;;9.28;85.35
76847;BME280;65813;49.546;8.644;2023-04-16T21:03:07;101181.72;;;9.27;85.47
76847;BME280;65813;49.546;8.644;2023-04-16T21:07:07;101187.81;;;9.29;85.29
76847;BME280;65813;49.546;8.644;2023-04-16T21:11:08;101188.03;;;9.25;86.00
